sensor_id;sensor_type;location;lat;lon;timestamp;pressure;altitude;pressure_sealevel;temperature;humidity
55466;BME280;41329;41.594;23.810;2023-04-23T00:01:46;95232.63;;;8.91;72.18
55466;BME280;41329;41.594;23.810;2023-04-23T00:04:13;95249.75;;;9.00;71.90
55466;BME280;41329;41.594;23.810;2023-04-23T00:06:41;95237.41;;;8.94;71.54
55466;BME280;41329;41.594;23.810;2023-04-23T00:09:07;95218.22;;;8.82;71.21
55466;BME280;41329;41.594;23.810;2023-04-23T00:11:34;95231.25;;;8.81;71.39
55466;BME280;41329;41.594;23.810;2023-04-23T00:13:59;95236.81;;;8.85;71.45
55466;BME280;41329;41.594;23.810;2023-04-23T00:16:25;95229.66;;;8.80;71.13
55466;BME280;41329;41.594;23.810;2023-04-23T00:18:50;95243.81;;;8.79;70.99
55466;BME280;41329;41.594;23.810;2023-04-23T00:21:16;95249.97;;;8.72;71.17
55466;BME280;41329;41.594;23.810;2023-04-23T00:23:42;95251.56;;;8.73;71.04
55466;BME280;41329;41.594;23.810;2023-04-23T00:26:07;95247.34;;;8.60;71.43
55466;BME280;41329;41.594;23.810;2023-04-23T00:28:33;95258.50;;;8.67;71.57
55466;BME280;41329;41.594;23.810;2023-04-23T00:30:58;95246.66;;;8.48;71.66
55466;BME280;41329;41.594;23.810;2023-04-23T00:33:24;95239.72;;;8.54;71.87
55466;BME280;41329;41.594;23.810;2023-04-23T00:35:49;95248.63;;;8.66;72.19
55466;BME280;41329;41.594;23.810;2023-04-23T00:38:15;95245.22;;;8.54;72.76
55466;BME280;41329;41.594;23.810;2023-04-23T00:40:40;95250.00;;;8.57;72.89
55466;BME280;41329;41.594;23.810;2023-04-23T00:43:06;95249.28;;;8.60;73.33
55466;BME280;41329;41.594;23.810;2023-04-23T00:45:32;95233.69;;;8.48;73.75
55466;BME280;41329;41.594;23.810;2023-04-23T00:47:58;95236.78;;;8.47;74.09
55466;BME280;41329;41.594;23.810;2023-04-23T00:50:24;95259.25;;;8.64;73.87
55466;BME280;41329;41.594;23.810;2023-04-23T00:52:49;95260.31;;;8.60;73.67
55466;BME280;41329;41.594;23.810;2023-04-23T00:55:15;95258.72;;;8.59;73.87
55466;BME280;41329;41.594;23.810;2023-04-23T00:57:40;95245.22;;;8.54;74.14
55466;BME280;41329;41.594;23.810;2023-04-23T01:00:07;95266.53;;;8.72;74.62
55466;BME280;41329;41.594;23.810;2023-04-23T01:02:34;95272.09;;;8.76;74.84
55466;BME280;41329;41.594;23.810;2023-04-23T01:05:02;95270.50;;;8.75;74.81
55466;BME280;41329;41.594;23.810;2023-04-23T01:07:30;95269.94;;;8.66;74.85
55466;BME280;41329;41.594;23.810;2023-04-23T01:09:57;95272.75;;;8.69;75.23
55466;BME280;41329;41.594;23.810;2023-04-23T01:12:23;95270.34;;;8.68;75.22
55466;BME280;41329;41.594;23.810;2023-04-23T01:14:48;95248.88;;;8.58;75.00
55466;BME280;41329;41.594;23.810;2023-04-23T01:17:14;95258.09;;;8.31;75.09
55466;BME280;41329;41.594;23.810;2023-04-23T01:19:39;95266.16;;;8.39;75.08
55466;BME280;41329;41.594;23.810;2023-04-23T01:22:12;95273.09;;;8.49;75.00
55466;BME280;41329;41.594;23.810;2023-04-23T01:24:38;95269.59;;;8.52;74.95
55466;BME280;41329;41.594;23.810;2023-04-23T01:27:05;95246.41;;;8.37;74.77
55466;BME280;41329;41.594;23.810;2023-04-23T01:29:31;95243.16;;;8.32;74.64
55466;BME280;41329;41.594;23.810;2023-04-23T01:31:58;95257.44;;;8.37;74.20
55466;BME280;41329;41.594;23.810;2023-04-23T01:34:23;95255.13;;;8.39;74.25
55466;BME280;41329;41.594;23.810;2023-04-23T01:36:49;95263.78;;;8.38;73.59
55466;BME280;41329;41.594;23.810;2023-04-23T01:39:16;95249.75;;;8.27;73.38
55466;BME280;41329;41.594;23.810;2023-04-23T01:41:42;95239.72;;;8.04;73.21
55466;BME280;41329;41.594;23.810;2023-04-23T01:44:08;95204.09;;;7.80;72.99
55466;BME280;41329;41.594;23.810;2023-04-23T01:46:33;95269.91;;;8.16;72.88
55466;BME280;41329;41.594;23.810;2023-04-23T01:48:59;95274.91;;;8.10;72.51
55466;BME280;41329;41.594;23.810;2023-04-23T01:51:25;95272.50;;;8.09;72.50
55466;BME280;41329;41.594;23.810;2023-04-23T01:53:51;95277.41;;;8.00;73.40
55466;BME280;41329;41.594;23.810;2023-04-23T01:56:19;95251.13;;;7.71;73.97
55466;BME280;41329;41.594;23.810;2023-04-23T01:58:47;95247.97;;;7.73;74.35
55466;BME280;41329;41.594;23.810;2023-04-23T02:01:12;95269.22;;;7.88;74.11
55466;BME280;41329;41.594;23.810;2023-04-23T02:03:38;95258.41;;;7.79;74.10
55466;BME280;41329;41.594;23.810;2023-04-23T02:06:03;95205.25;;;7.48;73.92
55466;BME280;41329;41.594;23.810;2023-04-23T02:08:29;95276.03;;;7.94;73.60
55466;BME280;41329;41.594;23.810;2023-04-23T02:10:55;95272.78;;;7.88;73.44
55466;BME280;41329;41.594;23.810;2023-04-23T02:13:21;95268.50;;;7.91;73.15
55466;BME280;41329;41.594;23.810;2023-04-23T02:15:46;95276.84;;;7.94;72.71
55466;BME280;41329;41.594;23.810;2023-04-23T02:18:12;95281.47;;;7.90;72.53
55466;BME280;41329;41.594;23.810;2023-04-23T02:20:37;95270.03;;;7.88;72.44
55466;BME280;41329;41.594;23.810;2023-04-23T02:23:06;95273.91;;;7.87;72.10
55466;BME280;41329;41.594;23.810;2023-04-23T02:25:32;95253.41;;;7.69;71.65
55466;BME280;41329;41.594;23.810;2023-04-23T02:27:58;95269.31;;;7.76;71.15
55466;BME280;41329;41.594;23.810;2023-04-23T02:30:25;95275.28;;;7.78;71.35
55466;BME280;41329;41.594;23.810;2023-04-23T02:32:51;95281.84;;;7.73;71.38
55466;BME280;41329;41.594;23.810;2023-04-23T02:35:16;95275.25;;;7.62;71.73
55466;BME280;41329;41.594;23.810;2023-04-23T02:37:42;95275.59;;;7.45;72.13
55466;BME280;41329;41.594;23.810;2023-04-23T02:40:08;95284.13;;;7.56;72.59
55466;BME280;41329;41.594;23.810;2023-04-23T02:42:34;95283.78;;;7.57;72.92
55466;BME280;41329;41.594;23.810;2023-04-23T02:44:59;95283.34;;;7.55;72.94
55466;BME280;41329;41.594;23.810;2023-04-23T02:47:25;95275.50;;;7.57;72.90
55466;BME280;41329;41.594;23.810;2023-04-23T02:49:50;95290.00;;;7.54;72.73
55466;BME280;41329;41.594;23.810;2023-04-23T02:52:15;95286.69;;;7.33;72.91
55466;BME280;41329;41.594;23.810;2023-04-23T02:54:41;95295.69;;;7.18;73.56
55466;BME280;41329;41.594;23.810;2023-04-23T02:57:07;95295.78;;;7.22;73.97
55466;BME280;41329;41.594;23.810;2023-04-23T02:59:32;95287.84;;;7.05;74.60
55466;BME280;41329;41.594;23.810;2023-04-23T03:01:58;95281.84;;;7.15;74.87
55466;BME280;41329;41.594;23.810;2023-04-23T03:04:23;95274.94;;;7.21;74.92
55466;BME280;41329;41.594;23.810;2023-04-23T03:06:49;95292.97;;;7.34;75.25
55466;BME280;41329;41.594;23.810;2023-04-23T03:09:14;95290.31;;;7.37;75.40
55466;BME280;41329;41.594;23.810;2023-04-23T03:11:40;95289.59;;;7.40;75.92
55466;BME280;41329;41.594;23.810;2023-04-23T03:14:05;95300.13;;;7.50;75.87
55466;BME280;41329;41.594;23.810;2023-04-23T03:16:31;95289.63;;;7.56;75.91
55466;BME280;41329;41.594;23.810;2023-04-23T03:18:57;95266.53;;;7.45;75.47
55466;BME280;41329;41.594;23.810;2023-04-23T03:21:23;95281.38;;;7.56;75.37
55466;BME280;41329;41.594;23.810;2023-04-23T03:23:49;95287.88;;;7.63;75.19
55466;BME280;41329;41.594;23.810;2023-04-23T03:26:14;95264.34;;;7.50;74.94
55466;BME280;41329;41.594;23.810;2023-04-23T03:28:40;95284.81;;;7.37;74.95
55466;BME280;41329;41.594;23.810;2023-04-23T03:31:05;95270.22;;;7.21;75.27
55466;BME280;41329;41.594;23.810;2023-04-23T03:33:30;95284.91;;;7.25;75.25
55466;BME280;41329;41.594;23.810;2023-04-23T03:35:56;95283.72;;;7.26;75.51
55466;BME280;41329;41.594;23.810;2023-04-23T03:38:22;95287.38;;;7.30;75.57
55466;BME280;41329;41.594;23.810;2023-04-23T03:40:47;95284.63;;;7.30;75.46
55466;BME280;41329;41.594;23.810;2023-04-23T03:43:13;95280.97;;;7.26;75.25
55466;BME280;41329;41.594;23.810;2023-04-23T03:45:38;95274.38;;;7.15;75.16
55466;BME280;41329;41.594;23.810;2023-04-23T03:48:04;95307.06;;;7.32;75.01
55466;BME280;41329;41.594;23.810;2023-04-23T03:50:29;95288.78;;;7.24;74.68
55466;BME280;41329;41.594;23.810;2023-04-23T03:52:59;95312.84;;;7.27;74.52
55466;BME280;41329;41.594;23.810;2023-04-23T03:55:25;95295.69;;;7.18;74.49
55466;BME280;41329;41.594;23.810;2023-04-23T03:57:51;95289.16;;;7.23;74.62
55466;BME280;41329;41.594;23.810;2023-04-23T04:00:16;95296.34;;;7.27;74.65
55466;BME280;41329;41.594;23.810;2023-04-23T04:02:42;95310.56;;;7.29;75.16
55466;BME280;41329;41.594;23.810;2023-04-23T04:05:08;95298.03;;;7.32;75.31
55466;BME280;41329;41.594;23.810;2023-04-23T04:07:36;95304.88;;;7.38;75.72
55466;BME280;41329;41.594;23.810;2023-04-23T04:10:02;95305.22;;;7.36;75.94
55466;BME280;41329;41.594;23.810;2023-04-23T04:12:29;95320.34;;;7.42;76.22
55466;BME280;41329;41.594;23.810;2023-04-23T04:14:54;95315.28;;;7.44;76.36
55466;BME280;41329;41.594;23.810;2023-04-23T04:17:20;95307.28;;;7.39;76.63
55466;BME280;41329;41.594;23.810;2023-04-23T04:19:45;95314.13;;;7.45;76.72
55466;BME280;41329;41.594;23.810;2023-04-23T04:22:11;95330.75;;;7.49;76.82
55466;BME280;41329;41.594;23.810;2023-04-23T04:24:36;95328.78;;;7.49;76.55
55466;BME280;41329;41.594;23.810;2023-04-23T04:27:02;95335.53;;;7.52;76.80
55466;BME280;41329;41.594;23.810;2023-04-23T04:29:29;95334.84;;;7.55;76.73
55466;BME280;41329;41.594;23.810;2023-04-23T04:31:55;95334.13;;;7.58;76.74
55466;BME280;41329;41.594;23.810;2023-04-23T04:34:21;95346.06;;;7.62;76.51
55466;BME280;41329;41.594;23.810;2023-04-23T04:36:47;95337.88;;;7.65;76.59
55466;BME280;41329;41.594;23.810;2023-04-23T04:39:13;95342.59;;;7.65;76.12
55466;BME280;41329;41.594;23.810;2023-04-23T04:41:40;95336.44;;;7.56;76.13
55466;BME280;41329;41.594;23.810;2023-04-23T04:44:06;95339.31;;;7.59;76.35
55466;BME280;41329;41.594;23.810;2023-04-23T04:46:33;95352.72;;;7.61;76.22
55466;BME280;41329;41.594;23.810;2023-04-23T04:48:59;95347.28;;;7.64;76.38
55466;BME280;41329;41.594;23.810;2023-04-23T04:51:25;95344.81;;;7.59;76.64
55466;BME280;41329;41.594;23.810;2023-04-23T04:53:51;95346.19;;;7.53;76.79
55466;BME280;41329;41.594;23.810;2023-04-23T04:56:16;95342.75;;;7.56;76.81
55466;BME280;41329;41.594;23.810;2023-04-23T04:58:42;95350.63;;;7.42;77.19
55466;BME280;41329;41.594;23.810;2023-04-23T05:01:07;95332.19;;;7.31;77.29
55466;BME280;41329;41.594;23.810;2023-04-23T05:03:33;95345.22;;;7.46;77.48
55466;BME280;41329;41.594;23.810;2023-04-23T05:05:59;95322.75;;;7.44;77.63
55466;BME280;41329;41.594;23.810;2023-04-23T05:08:25;95355.91;;;7.63;78.15
55466;BME280;41329;41.594;23.810;2023-04-23T05:10:51;95362.22;;;7.63;78.50
55466;BME280;41329;41.594;23.810;2023-04-23T05:13:18;95328.63;;;7.58;77.97
55466;BME280;41329;41.594;23.810;2023-04-23T05:15:45;95347.56;;;7.59;77.67
55466;BME280;41329;41.594;23.810;2023-04-23T05:18:10;95353.84;;;7.60;78.27
55466;BME280;41329;41.594;23.810;2023-04-23T05:20:36;95338.47;;;7.43;78.36
55466;BME280;41329;41.594;23.810;2023-04-23T05:23:02;95346.66;;;7.55;78.71
55466;BME280;41329;41.594;23.810;2023-04-23T05:25:29;95330.91;;;7.56;79.20
55466;BME280;41329;41.594;23.810;2023-04-23T05:27:55;95356.13;;;7.85;79.74
55466;BME280;41329;41.594;23.810;2023-04-23T05:30:20;95353.19;;;7.94;79.92
55466;BME280;41329;41.594;23.810;2023-04-23T05:32:45;95357.03;;;8.05;79.92
55466;BME280;41329;41.594;23.810;2023-04-23T05:35:11;95349.38;;;7.98;79.37
55466;BME280;41329;41.594;23.810;2023-04-23T05:37:36;95350.00;;;8.07;79.20
55466;BME280;41329;41.594;23.810;2023-04-23T05:40:02;95342.78;;;7.87;79.47
55466;BME280;41329;41.594;23.810;2023-04-23T05:42:30;95360.47;;;7.86;80.66
55466;BME280;41329;41.594;23.810;2023-04-23T05:44:55;95343.69;;;7.91;80.53
55466;BME280;41329;41.594;23.810;2023-04-23T05:47:21;95356.81;;;7.82;80.67
55466;BME280;41329;41.594;23.810;2023-04-23T05:49:46;95348.50;;;7.51;81.34
55466;BME280;41329;41.594;23.810;2023-04-23T05:52:12;95372.16;;;7.68;81.61
55466;BME280;41329;41.594;23.810;2023-04-23T05:54:37;95361.44;;;7.78;81.31
55466;BME280;41329;41.594;23.810;2023-04-23T05:57:03;95310.94;;;7.59;81.10
55466;BME280;41329;41.594;23.810;2023-04-23T05:59:29;95363.84;;;7.95;81.18
55466;BME280;41329;41.594;23.810;2023-04-23T06:01:55;95365.72;;;7.91;80.24
55466;BME280;41329;41.594;23.810;2023-04-23T06:04:20;95362.69;;;7.81;80.88
55466;BME280;41329;41.594;23.810;2023-04-23T06:06:46;95369.38;;;7.95;80.59
55466;BME280;41329;41.594;23.810;2023-04-23T06:09:11;95358.81;;;8.13;81.10
55466;BME280;41329;41.594;23.810;2023-04-23T06:11:37;95369.31;;;8.23;80.89
55466;BME280;41329;41.594;23.810;2023-04-23T06:14:03;95373.56;;;8.36;79.85
55466;BME280;41329;41.594;23.810;2023-04-23T06:16:28;95377.94;;;8.52;80.16
55466;BME280;41329;41.594;23.810;2023-04-23T06:18:54;95375.09;;;8.64;79.84
55466;BME280;41329;41.594;23.810;2023-04-23T06:21:22;95363.13;;;8.76;78.79
55466;BME280;41329;41.594;23.810;2023-04-23T06:23:48;95376.63;;;8.81;77.11
55466;BME280;41329;41.594;23.810;2023-04-23T06:26:14;95362.63;;;8.55;77.16
55466;BME280;41329;41.594;23.810;2023-04-23T06:28:45;95365.28;;;8.67;77.41
55466;BME280;41329;41.594;23.810;2023-04-23T06:31:11;95364.97;;;8.87;77.96
55466;BME280;41329;41.594;23.810;2023-04-23T06:33:37;95365.72;;;9.03;78.98
55466;BME280;41329;41.594;23.810;2023-04-23T06:36:03;95351.06;;;8.99;79.93
55466;BME280;41329;41.594;23.810;2023-04-23T06:38:29;95374.25;;;9.14;79.52
55466;BME280;41329;41.594;23.810;2023-04-23T06:40:55;95365.47;;;9.27;78.79
55466;BME280;41329;41.594;23.810;2023-04-23T06:43:20;95356.66;;;9.22;77.24
55466;BME280;41329;41.594;23.810;2023-04-23T06:45:46;95366.41;;;9.16;77.28
55466;BME280;41329;41.594;23.810;2023-04-23T06:48:11;95351.22;;;9.25;77.36
55466;BME280;41329;41.594;23.810;2023-04-23T06:50:37;95368.00;;;9.36;76.82
55466;BME280;41329;41.594;23.810;2023-04-23T06:53:04;95350.88;;;9.46;77.19
55466;BME280;41329;41.594;23.810;2023-04-23T06:55:29;95367.06;;;9.66;77.00
55466;BME280;41329;41.594;23.810;2023-04-23T06:57:55;95341.69;;;9.61;75.84
55466;BME280;41329;41.594;23.810;2023-04-23T07:00:21;95317.22;;;9.40;74.87
55466;BME280;41329;41.594;23.810;2023-04-23T07:02:47;95355.94;;;9.63;76.20
55466;BME280;41329;41.594;23.810;2023-04-23T07:05:12;95345.97;;;9.58;76.55
55466;BME280;41329;41.594;23.810;2023-04-23T07:07:39;95343.97;;;9.78;77.32
55466;BME280;41329;41.594;23.810;2023-04-23T07:10:08;95368.38;;;10.14;77.46
55466;BME280;41329;41.594;23.810;2023-04-23T07:12:34;95352.53;;;10.11;76.74
55466;BME280;41329;41.594;23.810;2023-04-23T07:15:01;95351.94;;;10.21;75.92
55466;BME280;41329;41.594;23.810;2023-04-23T07:17:26;95359.78;;;10.41;75.35
55466;BME280;41329;41.594;23.810;2023-04-23T07:19:51;95359.03;;;10.44;75.01
55466;BME280;41329;41.594;23.810;2023-04-23T07:22:17;95358.47;;;10.58;74.11
55466;BME280;41329;41.594;23.810;2023-04-23T07:24:42;95358.59;;;10.65;73.63
55466;BME280;41329;41.594;23.810;2023-04-23T07:27:08;95354.22;;;10.64;73.07
55466;BME280;41329;41.594;23.810;2023-04-23T07:29:33;95363.88;;;10.73;74.11
55466;BME280;41329;41.594;23.810;2023-04-23T07:31:59;95344.91;;;10.75;74.52
55466;BME280;41329;41.594;23.810;2023-04-23T07:34:24;95311.66;;;10.72;74.04
55466;BME280;41329;41.594;23.810;2023-04-23T07:36:50;95344.09;;;10.75;73.27
55466;BME280;41329;41.594;23.810;2023-04-23T07:39:16;95331.88;;;10.76;73.63
55466;BME280;41329;41.594;23.810;2023-04-23T07:41:42;95352.88;;;11.06;73.10
55466;BME280;41329;41.594;23.810;2023-04-23T07:44:07;95358.34;;;11.29;73.30
55466;BME280;41329;41.594;23.810;2023-04-23T07:46:32;95350.81;;;11.26;71.40
55466;BME280;41329;41.594;23.810;2023-04-23T07:48:58;95333.78;;;11.27;72.49
55466;BME280;41329;41.594;23.810;2023-04-23T07:51:24;95349.31;;;11.61;73.74
55466;BME280;41329;41.594;23.810;2023-04-23T07:53:53;95349.75;;;11.67;71.88
55466;BME280;41329;41.594;23.810;2023-04-23T07:56:20;95339.72;;;11.92;71.65
55466;BME280;41329;41.594;23.810;2023-04-23T07:58:46;95330.38;;;12.03;71.19
55466;BME280;41329;41.594;23.810;2023-04-23T08:01:12;95344.84;;;12.26;71.56
55466;BME280;41329;41.594;23.810;2023-04-23T08:03:38;95345.78;;;12.41;70.22
55466;BME280;41329;41.594;23.810;2023-04-23T08:06:03;95328.41;;;12.51;67.40
55466;BME280;41329;41.594;23.810;2023-04-23T08:08:29;95332.84;;;12.59;68.11
55466;BME280;41329;41.594;23.810;2023-04-23T08:10:54;95334.50;;;12.71;68.03
55466;BME280;41329;41.594;23.810;2023-04-23T08:13:20;95327.13;;;12.89;66.82
55466;BME280;41329;41.594;23.810;2023-04-23T08:15:45;95331.69;;;13.14;69.29
55466;BME280;41329;41.594;23.810;2023-04-23T08:18:11;95327.84;;;13.40;67.68
55466;BME280;41329;41.594;23.810;2023-04-23T08:20:36;95333.09;;;13.52;66.20
55466;BME280;41329;41.594;23.810;2023-04-23T08:23:02;95323.13;;;13.47;65.48
55466;BME280;41329;41.594;23.810;2023-04-23T08:25:28;95316.03;;;13.53;64.40
55466;BME280;41329;41.594;23.810;2023-04-23T08:27:54;95322.47;;;13.78;66.72
55466;BME280;41329;41.594;23.810;2023-04-23T08:30:19;95309.00;;;14.01;65.01
55466;BME280;41329;41.594;23.810;2023-04-23T08:32:48;95304.28;;;14.16;61.59
55466;BME280;41329;41.594;23.810;2023-04-23T08:35:14;95250.97;;;13.89;62.54
55466;BME280;41329;41.594;23.810;2023-04-23T08:37:39;95299.56;;;14.37;62.46
55466;BME280;41329;41.594;23.810;2023-04-23T08:40:06;95268.50;;;14.11;61.04
55466;BME280;41329;41.594;23.810;2023-04-23T08:45:03;95271.31;;;14.35;59.69
55466;BME280;41329;41.594;23.810;2023-04-23T08:47:31;95284.88;;;14.65;61.46
55466;BME280;41329;41.594;23.810;2023-04-23T08:49:58;95272.09;;;14.85;59.03
55466;BME280;41329;41.594;23.810;2023-04-23T08:52:26;95269.72;;;14.87;59.15
55466;BME280;41329;41.594;23.810;2023-04-23T08:54:58;95252.22;;;14.83;59.01
55466;BME280;41329;41.594;23.810;2023-04-23T08:57:24;95274.00;;;15.19;57.24
55466;BME280;41329;41.594;23.810;2023-04-23T08:59:51;95274.00;;;15.19;57.38
55466;BME280;41329;41.594;23.810;2023-04-23T09:02:17;95271.22;;;15.26;56.16
55466;BME280;41329;41.594;23.810;2023-04-23T09:04:44;95262.06;;;15.29;55.78
55466;BME280;41329;41.594;23.810;2023-04-23T09:07:11;95260.41;;;15.46;54.19
55466;BME280;41329;41.594;23.810;2023-04-23T09:09:37;95265.16;;;15.59;55.87
55466;BME280;41329;41.594;23.810;2023-04-23T09:12:04;95263.91;;;15.67;53.79
55466;BME280;41329;41.594;23.810;2023-04-23T09:14:31;95265.94;;;15.63;55.08
55466;BME280;41329;41.594;23.810;2023-04-23T09:16:56;95257.97;;;15.62;53.37
55466;BME280;41329;41.594;23.810;2023-04-23T09:19:24;95267.09;;;15.69;52.84
55466;BME280;41329;41.594;23.810;2023-04-23T09:21:52;95263.03;;;15.81;53.28
55466;BME280;41329;41.594;23.810;2023-04-23T09:24:21;95254.53;;;16.05;55.24
55466;BME280;41329;41.594;23.810;2023-04-23T09:26:48;95252.00;;;16.25;55.47
55466;BME280;41329;41.594;23.810;2023-04-23T09:29:15;95254.72;;;16.35;51.85
55466;BME280;41329;41.594;23.810;2023-04-23T09:31:46;95253.84;;;16.49;51.70
55466;BME280;41329;41.594;23.810;2023-04-23T09:34:14;95245.03;;;16.54;51.26
55466;BME280;41329;41.594;23.810;2023-04-23T09:36:46;95243.66;;;16.72;49.56
55466;BME280;41329;41.594;23.810;2023-04-23T09:39:14;95233.69;;;16.71;47.85
55466;BME280;41329;41.594;23.810;2023-04-23T09:41:40;95240.22;;;16.98;48.43
55466;BME280;41329;41.594;23.810;2023-04-23T09:44:06;95227.94;;;16.89;47.89
55466;BME280;41329;41.594;23.810;2023-04-23T09:46:38;95229.59;;;16.83;46.67
55466;BME280;41329;41.594;23.810;2023-04-23T09:49:05;95220.25;;;16.96;49.85
55466;BME280;41329;41.594;23.810;2023-04-23T09:51:39;95219.78;;;17.42;49.23
55466;BME280;41329;41.594;23.810;2023-04-23T09:54:21;95204.94;;;17.48;46.09
55466;BME280;41329;41.594;23.810;2023-04-23T09:56:50;95205.81;;;17.38;42.77
55466;BME280;41329;41.594;23.810;2023-04-23T09:59:26;95210.53;;;17.45;44.48
55466;BME280;41329;41.594;23.810;2023-04-23T10:01:52;95215.09;;;17.65;44.07
55466;BME280;41329;41.594;23.810;2023-04-23T10:04:20;95219.38;;;17.73;41.92
55466;BME280;41329;41.594;23.810;2023-04-23T10:06:57;95207.44;;;17.69;43.93
55466;BME280;41329;41.594;23.810;2023-04-23T10:09:24;95214.09;;;18.09;45.88
55466;BME280;41329;41.594;23.810;2023-04-23T10:11:55;95210.97;;;18.30;41.08
55466;BME280;41329;41.594;23.810;2023-04-23T10:14:22;95199.19;;;18.16;40.88
55466;BME280;41329;41.594;23.810;2023-04-23T10:16:51;95190.56;;;18.30;41.21
55466;BME280;41329;41.594;23.810;2023-04-23T10:19:21;95189.50;;;18.20;37.73
55466;BME280;41329;41.594;23.810;2023-04-23T10:22:08;95182.06;;;18.37;40.50
55466;BME280;41329;41.594;23.810;2023-04-23T10:24:38;95177.44;;;18.73;42.43
55466;BME280;41329;41.594;23.810;2023-04-23T10:27:10;95157.28;;;19.01;40.49
55466;BME280;41329;41.594;23.810;2023-04-23T10:29:35;95178.16;;;19.19;38.42
55466;BME280;41329;41.594;23.810;2023-04-23T10:32:03;95178.88;;;19.04;34.13
55466;BME280;41329;41.594;23.810;2023-04-23T10:34:29;95164.56;;;18.98;37.56
55466;BME280;41329;41.594;23.810;2023-04-23T10:36:56;95161.88;;;19.11;36.90
55466;BME280;41329;41.594;23.810;2023-04-23T10:39:26;95154.44;;;19.24;35.83
55466;BME280;41329;41.594;23.810;2023-04-23T10:41:53;95161.88;;;19.34;37.92
55466;BME280;41329;41.594;23.810;2023-04-23T10:44:19;95158.34;;;19.30;36.63
55466;BME280;41329;41.594;23.810;2023-04-23T10:46:54;95139.97;;;19.45;40.85
55466;BME280;41329;41.594;23.810;2023-04-23T10:49:28;95142.03;;;19.80;35.72
55466;BME280;41329;41.594;23.810;2023-04-23T10:52:02;95147.75;;;19.92;37.08
55466;BME280;41329;41.594;23.810;2023-04-23T10:54:30;95133.22;;;19.62;37.54
55466;BME280;41329;41.594;23.810;2023-04-23T10:57:00;95130.69;;;19.48;37.49
55466;BME280;41329;41.594;23.810;2023-04-23T10:59:28;95136.88;;;19.59;37.37
55466;BME280;41329;41.594;23.810;2023-04-23T11:02:00;95128.41;;;19.78;38.48
55466;BME280;41329;41.594;23.810;2023-04-23T11:04:30;95130.13;;;20.08;38.52
55466;BME280;41329;41.594;23.810;2023-04-23T11:06:57;95121.44;;;20.02;38.21
55466;BME280;41329;41.594;23.810;2023-04-23T11:12:12;95122.59;;;20.05;37.46
55466;BME280;41329;41.594;23.810;2023-04-23T11:17:06;95118.06;;;20.11;38.34
55466;BME280;41329;41.594;23.810;2023-04-23T11:19:35;95124.38;;;20.15;37.26
55466;BME280;41329;41.594;23.810;2023-04-23T11:22:02;95124.22;;;20.22;36.45
55466;BME280;41329;41.594;23.810;2023-04-23T11:24:29;95120.84;;;20.11;34.88
55466;BME280;41329;41.594;23.810;2023-04-23T11:26:56;95103.66;;;20.09;36.64
55466;BME280;41329;41.594;23.810;2023-04-23T11:29:23;95073.47;;;20.13;36.99
55466;BME280;41329;41.594;23.810;2023-04-23T11:31:50;95119.03;;;20.52;35.69
55466;BME280;41329;41.594;23.810;2023-04-23T11:34:16;95120.63;;;20.82;36.59
55466;BME280;41329;41.594;23.810;2023-04-23T11:36:42;95121.00;;;20.84;35.35
55466;BME280;41329;41.594;23.810;2023-04-23T11:39:07;95122.16;;;20.70;34.91
55466;BME280;41329;41.594;23.810;2023-04-23T11:41:35;95128.19;;;20.85;37.46
55466;BME280;41329;41.594;23.810;2023-04-23T11:44:00;95109.53;;;21.07;39.49
55466;BME280;41329;41.594;23.810;2023-04-23T11:46:26;95120.81;;;21.48;38.21
55466;BME280;41329;41.594;23.810;2023-04-23T11:48:51;95125.00;;;21.68;37.35
55466;BME280;41329;41.594;23.810;2023-04-23T11:51:17;95106.69;;;21.76;37.49
55466;BME280;41329;41.594;23.810;2023-04-23T11:53:47;95123.94;;;22.16;36.45
55466;BME280;41329;41.594;23.810;2023-04-23T11:56:16;95101.53;;;22.12;35.25
55466;BME280;41329;41.594;23.810;2023-04-23T11:58:42;95121.03;;;22.07;33.61
55466;BME280;41329;41.594;23.810;2023-04-23T12:01:09;95111.44;;;22.04;32.04
55466;BME280;41329;41.594;23.810;2023-04-23T12:03:35;95093.97;;;21.72;33.33
55466;BME280;41329;41.594;23.810;2023-04-23T12:06:01;95105.69;;;21.01;32.35
55466;BME280;41329;41.594;23.810;2023-04-23T12:08:31;95100.59;;;20.96;32.90
55466;BME280;41329;41.594;23.810;2023-04-23T12:11:00;95105.16;;;21.06;33.26
55466;BME280;41329;41.594;23.810;2023-04-23T12:13:28;95090.41;;;20.86;33.31
55466;BME280;41329;41.594;23.810;2023-04-23T12:15:57;95105.97;;;21.19;36.24
55466;BME280;41329;41.594;23.810;2023-04-23T12:18:34;95098.91;;;21.27;35.73
55466;BME280;41329;41.594;23.810;2023-04-23T12:21:05;95082.66;;;21.18;35.52
55466;BME280;41329;41.594;23.810;2023-04-23T12:23:31;95090.94;;;21.38;35.95
55466;BME280;41329;41.594;23.810;2023-04-23T12:25:57;95081.16;;;21.42;35.54
55466;BME280;41329;41.594;23.810;2023-04-23T12:28:23;95078.13;;;21.49;35.15
55466;BME280;41329;41.594;23.810;2023-04-23T12:30:49;95083.09;;;21.45;34.84
55466;BME280;41329;41.594;23.810;2023-04-23T12:33:15;95062.59;;;21.04;32.01
55466;BME280;41329;41.594;23.810;2023-04-23T12:35:48;95063.50;;;20.56;34.51
55466;BME280;41329;41.594;23.810;2023-04-23T12:38:26;95064.66;;;20.43;35.58
55466;BME280;41329;41.594;23.810;2023-04-23T12:40:53;95063.69;;;20.49;35.45
55466;BME280;41329;41.594;23.810;2023-04-23T12:43:18;95051.44;;;20.27;34.40
55466;BME280;41329;41.594;23.810;2023-04-23T12:45:44;95051.09;;;20.54;35.35
55466;BME280;41329;41.594;23.810;2023-04-23T12:48:10;95045.25;;;20.77;33.50
55466;BME280;41329;41.594;23.810;2023-04-23T12:50:36;95042.94;;;20.88;33.60
55466;BME280;41329;41.594;23.810;2023-04-23T12:53:02;95035.44;;;20.97;31.21
55466;BME280;41329;41.594;23.810;2023-04-23T12:55:27;95056.97;;;21.04;33.75
55466;BME280;41329;41.594;23.810;2023-04-23T12:57:53;95034.88;;;20.74;32.65
55466;BME280;41329;41.594;23.810;2023-04-23T13:00:18;95042.69;;;20.82;33.64